CheckWX is a tool to help pilots better visualize weather data.  It is not intended as a substitute for an official pre-flight weather briefing.

06:52:21 UTC

GCTS TAF
Tenerife South Airport
Tenerife Island, Spain
TAF GCTS 170200Z 1703/1803 32005KT 9999 SCT035 TX26/1714Z TN19/1706Z BECMG 1708/1710 22012KT BECMG 1717/1719 08009KT

Jun-17@
03:00 UTC

Jun-17 @ 03:00 UTC

Jun-17@
08:00 UTC

Jun-17 @ 08:00 UTC

TAF GCTS 170200Z 1703/1803 32005KT 9999 SCT035 TX26/1714Z TN19/1706Z
Wind
  • 320° at 5 KTS
Cloud Levels
  • Scattered at 3,500' AGL

Jun-17@
08:00 UTC

Jun-17 @ 08:00 UTC

Jun-17@
17:00 UTC

Jun-17 @ 17:00 UTC

BECMG 1708/1710 22012KT

Becoming

Becoming Conditions expected by Mon, Jun 17, 2019 @ 10:00 UTC

Wind
  • 220° at 12 KTS
Cloud Levels
  • Scattered at 3,500' AGL

Jun-17@
17:00 UTC

Jun-17 @ 17:00 UTC

Jun-18@
03:00 UTC

Jun-18 @ 03:00 UTC

BECMG 1717/1719 08009KT

Becoming

Becoming Conditions expected by Mon, Jun 17, 2019 @ 19:00 UTC

Wind
  • 080° at 9 KTS
Cloud Levels
  • Scattered at 3,500' AGL